createdAt,value
2018-06-08T00:00:49.314Z,16.35
2018-06-08T00:01:49.319Z,16.44
2018-06-08T00:02:49.253Z,16.38
2018-06-08T00:03:49.268Z,16.3
2018-06-08T00:04:49.247Z,16.32
2018-06-08T00:05:49.290Z,16.46
2018-06-08T00:06:49.680Z,16.54
2018-06-08T00:07:49.259Z,16.37
2018-06-08T00:08:49.322Z,16.32
2018-06-08T00:09:49.748Z,16.17
2018-06-08T00:10:49.592Z,16.07
2018-06-08T00:11:49.240Z,16.2
2018-06-08T00:12:49.277Z,16.09
2018-06-08T00:13:49.258Z,16.08
2018-06-08T00:14:49.311Z,16.09
2018-06-08T00:15:49.340Z,16.04
2018-06-08T00:16:49.224Z,15.91
2018-06-08T00:17:49.324Z,15.87
2018-06-08T00:18:49.723Z,15.87
2018-06-08T00:19:49.284Z,15.97
2018-06-08T00:20:49.244Z,15.97
2018-06-08T00:21:49.303Z,16.07
2018-06-08T00:22:49.235Z,16.05
2018-06-08T00:23:49.285Z,16.09
2018-06-08T00:24:49.232Z,16.24
2018-06-08T00:25:49.237Z,16.02
2018-06-08T00:26:49.271Z,16.17
2018-06-08T00:27:49.230Z,16.11
2018-06-08T00:28:49.228Z,15.95
2018-06-08T00:29:49.224Z,16.19
2018-06-08T00:30:49.246Z,16
2018-06-08T00:31:49.237Z,16.18
2018-06-08T00:32:49.231Z,16.07
2018-06-08T00:33:49.592Z,15.97
2018-06-08T00:34:49.230Z,15.98
2018-06-08T00:35:49.224Z,15.9
2018-06-08T00:36:49.671Z,15.89
2018-06-08T00:37:49.234Z,15.96
2018-06-08T00:38:49.237Z,16.17
2018-06-08T00:39:49.235Z,15.98
2018-06-08T00:40:49.227Z,15.92
2018-06-08T00:41:49.248Z,15.96
2018-06-08T00:42:49.218Z,15.83
2018-06-08T00:43:49.237Z,15.83
2018-06-08T00:44:49.289Z,15.84
2018-06-08T00:45:49.255Z,15.8
2018-06-08T00:46:49.253Z,15.81
2018-06-08T00:47:49.371Z,15.73
2018-06-08T00:48:49.233Z,15.75
2018-06-08T00:49:50.042Z,15.78
2018-06-08T00:50:50.127Z,15.76
2018-06-08T00:51:50.094Z,15.74
2018-06-08T00:52:49.978Z,15.79
2018-06-08T00:53:50.021Z,15.64
2018-06-08T00:54:50.038Z,15.75
2018-06-08T00:55:50.362Z,15.7
2018-06-08T00:56:50.105Z,15.9
2018-06-08T00:57:49.959Z,15.89
2018-06-08T00:58:50.045Z,15.88
2018-06-08T00:59:50.043Z,15.74
2018-06-08T01:00:50.077Z,15.88
2018-06-08T01:01:50.020Z,15.69
2018-06-08T01:02:50.046Z,15.74
2018-06-08T01:03:50.015Z,15.75
2018-06-08T01:04:50.099Z,15.77
2018-06-08T01:05:49.987Z,15.84
2018-06-08T01:06:49.946Z,15.73
2018-06-08T01:07:50.133Z,15.72
2018-06-08T01:08:50.160Z,15.64
2018-06-08T01:09:50.047Z,15.67
2018-06-08T01:10:49.991Z,15.76
2018-06-08T01:11:50.040Z,15.87
2018-06-08T01:12:50.024Z,15.84
2018-06-08T01:13:49.996Z,15.88
2018-06-08T01:14:50.061Z,15.82
2018-06-08T01:15:50.142Z,15.71
2018-06-08T01:16:50.106Z,15.85
2018-06-08T01:17:50.025Z,15.82
2018-06-08T01:18:49.979Z,15.68
2018-06-08T01:19:50.200Z,15.64
2018-06-08T01:20:49.929Z,15.79
2018-06-08T01:21:50.022Z,15.68
2018-06-08T01:22:50.134Z,15.62
2018-06-08T01:23:50.024Z,15.6
2018-06-08T01:24:50.006Z,15.74
2018-06-08T01:25:50.136Z,15.63
2018-06-08T01:26:50.015Z,15.64
2018-06-08T01:27:50.024Z,15.6
2018-06-08T01:28:50.026Z,15.65
2018-06-08T01:29:50.049Z,15.71
2018-06-08T01:30:50.068Z,15.66
2018-06-08T01:31:50.007Z,15.61
2018-06-08T01:32:50.024Z,15.67
2018-06-08T01:33:49.976Z,15.64
2018-06-08T01:34:49.953Z,15.64
2018-06-08T01:35:50.170Z,15.5
2018-06-08T01:36:50.089Z,15.44
2018-06-08T01:37:49.972Z,15.47
2018-06-08T01:38:49.994Z,15.45
2018-06-08T01:39:49.947Z,15.48
2018-06-08T01:40:49.942Z,15.43
2018-06-08T01:41:49.954Z,15.52
2018-06-08T01:42:50.016Z,15.53
2018-06-08T01:43:50.018Z,15.55
2018-06-08T01:44:49.958Z,15.51
2018-06-08T01:45:49.868Z,15.72
2018-06-08T01:46:49.993Z,15.71
2018-06-08T01:47:50.012Z,15.8
2018-06-08T01:48:49.989Z,15.68
2018-06-08T01:49:49.647Z,15.76
2018-06-08T01:50:49.871Z,15.79
2018-06-08T01:51:49.848Z,15.63
2018-06-08T01:52:49.885Z,15.62
2018-06-08T01:53:49.959Z,15.58
2018-06-08T01:54:49.900Z,15.77
2018-06-08T01:55:49.846Z,15.71
2018-06-08T01:56:49.823Z,15.78
2018-06-08T01:57:49.847Z,15.74
2018-06-08T01:58:50.032Z,15.59
2018-06-08T01:59:49.847Z,15.71
2018-06-08T02:00:50.139Z,15.86
2018-06-08T02:01:49.892Z,15.8
2018-06-08T02:02:49.927Z,15.65
2018-06-08T02:03:50.246Z,15.63
2018-06-08T02:04:49.879Z,15.74
2018-06-08T02:05:49.926Z,15.83
2018-06-08T02:06:50.292Z,15.72
2018-06-08T02:07:49.873Z,15.64
2018-06-08T02:08:49.859Z,15.82
2018-06-08T02:09:49.858Z,15.64
2018-06-08T02:10:50.285Z,15.73
2018-06-08T02:11:49.886Z,15.67
2018-06-08T02:12:50.137Z,15.81
2018-06-08T02:13:49.860Z,15.79
2018-06-08T02:14:49.940Z,15.83
2018-06-08T02:15:49.846Z,15.86
2018-06-08T02:16:49.640Z,15.82
2018-06-08T02:17:49.832Z,15.73
2018-06-08T02:18:49.851Z,15.72
2018-06-08T02:19:49.913Z,15.59
2018-06-08T02:20:49.949Z,15.62
2018-06-08T02:21:49.877Z,15.65
2018-06-08T02:22:50.193Z,15.55
2018-06-08T02:23:49.843Z,15.59
2018-06-08T02:24:49.904Z,15.87
2018-06-08T02:25:49.958Z,15.75
2018-06-08T02:26:49.836Z,15.71
2018-06-08T02:27:49.864Z,15.57
2018-06-08T02:28:50.168Z,15.57
2018-06-08T02:29:49.876Z,15.63
2018-06-08T02:30:49.911Z,15.65
2018-06-08T02:31:49.848Z,15.66
2018-06-08T02:32:49.899Z,15.7
2018-06-08T02:33:50.022Z,15.71
2018-06-08T02:34:49.857Z,15.52
2018-06-08T02:35:49.925Z,15.51
2018-06-08T02:36:49.830Z,15.65
2018-06-08T02:37:50.188Z,15.62
2018-06-08T02:38:49.860Z,15.54
2018-06-08T02:39:49.871Z,15.66
2018-06-08T02:40:50.205Z,15.65
2018-06-08T02:41:49.938Z,15.74
2018-06-08T02:42:49.903Z,15.57
2018-06-08T02:43:50.014Z,15.67
2018-06-08T02:44:49.497Z,15.66
2018-06-08T02:45:49.895Z,15.58
2018-06-08T02:46:49.906Z,15.6
2018-06-08T02:47:49.931Z,15.57
2018-06-08T02:48:50.806Z,15.57
2018-06-08T02:49:49.203Z,15.48
2018-06-08T02:50:49.207Z,15.41
2018-06-08T02:51:49.219Z,15.38
2018-06-08T02:52:49.219Z,15.6
2018-06-08T02:53:49.205Z,15.67
2018-06-08T02:54:49.234Z,15.56
2018-06-08T02:55:49.184Z,15.53
2018-06-08T02:56:49.225Z,15.56
2018-06-08T02:57:49.202Z,15.58
2018-06-08T02:58:49.233Z,15.53
2018-06-08T02:59:49.224Z,15.56
2018-06-08T03:00:49.194Z,15.53
2018-06-08T03:01:49.188Z,15.4
2018-06-08T03:02:49.241Z,15.6
2018-06-08T03:03:49.197Z,15.54
2018-06-08T03:04:49.206Z,15.47
2018-06-08T03:05:49.233Z,15.4
2018-06-08T03:06:49.238Z,15.44
2018-06-08T03:07:49.188Z,15.49
2018-06-08T03:08:49.258Z,15.33
2018-06-08T03:09:49.245Z,15.32
2018-06-08T03:10:49.273Z,15.38
2018-06-08T03:11:49.214Z,15.41
2018-06-08T03:12:49.484Z,15.37
2018-06-08T03:13:49.194Z,15.36
2018-06-08T03:14:49.193Z,15.27
2018-06-08T03:15:49.223Z,15.46
2018-06-08T03:16:49.208Z,15.51
2018-06-08T03:17:49.291Z,15.41
2018-06-08T03:18:49.224Z,15.3
2018-06-08T03:19:49.215Z,15.32
2018-06-08T03:20:49.224Z,15.39
2018-06-08T03:21:49.291Z,15.38
2018-06-08T03:22:49.212Z,15.31
2018-06-08T03:23:49.240Z,15.26
2018-06-08T03:24:49.358Z,15.3
2018-06-08T03:25:49.198Z,15.28
2018-06-08T03:26:49.212Z,15.33
2018-06-08T03:27:49.259Z,15.2
2018-06-08T03:28:49.341Z,15.16
2018-06-08T03:29:49.192Z,15.33
2018-06-08T03:30:49.221Z,15.35
2018-06-08T03:31:49.190Z,15.23
2018-06-08T03:32:49.150Z,15.3
2018-06-08T03:33:49.197Z,15.21
2018-06-08T03:34:49.254Z,15.3
2018-06-08T03:35:49.179Z,15.19
2018-06-08T03:36:49.175Z,15.28
2018-06-08T03:37:49.194Z,15.2
2018-06-08T03:38:49.182Z,15.28
2018-06-08T03:39:49.301Z,15.25
2018-06-08T03:40:49.167Z,15.24
2018-06-08T03:41:49.171Z,15.14
2018-06-08T03:42:49.262Z,15.27
2018-06-08T03:43:49.322Z,15.22
2018-06-08T03:44:49.199Z,15.19
2018-06-08T03:45:49.216Z,15.14
2018-06-08T03:46:49.170Z,15.11
2018-06-08T03:47:49.363Z,15.23
2018-06-08T03:48:49.171Z,15.07
2018-06-08T03:49:49.220Z,15.18
2018-06-08T03:50:49.193Z,15.33
2018-06-08T03:51:49.211Z,15.3
2018-06-08T03:52:49.288Z,15.21
2018-06-08T03:53:49.150Z,15.24
2018-06-08T03:54:49.309Z,15.19
2018-06-08T03:55:49.225Z,15.12
2018-06-08T03:56:49.274Z,15.05
2018-06-08T03:57:49.160Z,15.08
2018-06-08T03:58:49.161Z,15.07
2018-06-08T03:59:49.219Z,15.06
2018-06-08T04:00:49.181Z,15.15
2018-06-08T04:01:49.177Z,15.15
2018-06-08T04:02:49.150Z,15.09
2018-06-08T04:03:49.246Z,15.07
2018-06-08T04:04:49.149Z,14.98
2018-06-08T04:05:49.171Z,15
2018-06-08T04:06:49.173Z,14.91
2018-06-08T04:07:49.177Z,15.11
2018-06-08T04:08:49.151Z,15.04
2018-06-08T04:09:49.193Z,15.03
2018-06-08T04:10:49.165Z,14.92
2018-06-08T04:11:49.156Z,15.03
2018-06-08T04:12:49.169Z,15.03
2018-06-08T04:13:49.158Z,15.11
2018-06-08T04:14:49.165Z,15.02
2018-06-08T04:15:49.185Z,14.95
2018-06-08T04:16:49.172Z,14.89
2018-06-08T04:17:49.185Z,14.95
2018-06-08T04:18:49.181Z,14.91
2018-06-08T04:19:49.157Z,14.9
2018-06-08T04:20:49.157Z,14.95
2018-06-08T04:21:49.159Z,14.96
2018-06-08T04:22:49.299Z,15.06
2018-06-08T04:23:49.192Z,15.01
2018-06-08T04:24:49.158Z,15.05
2018-06-08T04:25:49.860Z,14.97
2018-06-08T04:26:49.259Z,15.03
2018-06-08T04:27:49.207Z,14.99
2018-06-08T04:28:49.196Z,15.06
2018-06-08T04:29:49.153Z,14.97
2018-06-08T04:30:49.173Z,14.97
2018-06-08T04:31:49.152Z,15
2018-06-08T04:32:49.873Z,15.05
2018-06-08T04:33:49.203Z,15.08
2018-06-08T04:34:49.370Z,15.04
2018-06-08T04:35:49.254Z,14.96
2018-06-08T04:36:49.225Z,15.06
2018-06-08T04:37:49.416Z,14.96
2018-06-08T04:38:49.169Z,15.01
2018-06-08T04:39:49.216Z,15.12
2018-06-08T04:40:49.230Z,15.18
2018-06-08T04:41:49.236Z,15.11
2018-06-08T04:42:49.175Z,15.08
2018-06-08T04:43:49.172Z,14.98
2018-06-08T04:44:49.198Z,15.11
2018-06-08T04:45:49.268Z,15.11
2018-06-08T04:46:49.248Z,15.03
2018-06-08T04:47:49.348Z,15.06
2018-06-08T04:48:49.179Z,15.05
2018-06-08T04:49:49.154Z,15.1
2018-06-08T04:50:49.326Z,15.01
2018-06-08T04:51:52.011Z,15.08
2018-06-08T04:52:49.184Z,15.04
2018-06-08T04:53:49.157Z,15.12
2018-06-08T04:54:49.276Z,15.13
2018-06-08T04:55:49.258Z,15.1
2018-06-08T04:56:49.239Z,15.11
2018-06-08T04:57:49.182Z,15.09
2018-06-08T04:58:49.196Z,15.13
2018-06-08T04:59:49.188Z,15.1
2018-06-08T05:00:49.150Z,15.03
2018-06-08T05:01:49.144Z,15
2018-06-08T05:02:49.158Z,15.13
2018-06-08T05:03:49.187Z,15.05
2018-06-08T05:04:49.165Z,15.05
2018-06-08T05:05:49.183Z,15.02
2018-06-08T05:06:49.164Z,15.18
2018-06-08T05:07:49.153Z,15.11
2018-06-08T05:08:49.169Z,15.22
2018-06-08T05:09:49.621Z,15.12
2018-06-08T05:10:49.143Z,15.17
2018-06-08T05:11:49.227Z,15.12
2018-06-08T05:12:49.138Z,15.14
2018-06-08T05:13:49.182Z,15.17
2018-06-08T05:14:49.155Z,15.27
2018-06-08T05:15:50.209Z,15.29
2018-06-08T05:16:49.142Z,15.3
2018-06-08T05:17:49.130Z,15.23
2018-06-08T05:18:49.122Z,15.16
2018-06-08T05:19:49.210Z,15.15
2018-06-08T05:20:49.152Z,15.3
2018-06-08T05:21:49.149Z,15.26
2018-06-08T05:22:49.199Z,15.19
2018-06-08T05:23:49.165Z,15.16
2018-06-08T05:24:49.170Z,15.13
2018-06-08T05:25:49.171Z,15.11
2018-06-08T05:26:49.161Z,15.13
2018-06-08T05:27:49.150Z,15.09
2018-06-08T05:28:49.174Z,15.2
2018-06-08T05:29:49.173Z,15.2
2018-06-08T05:30:49.120Z,15.16
2018-06-08T05:31:49.418Z,15.29
2018-06-08T05:32:49.247Z,15.17
2018-06-08T05:33:49.147Z,15.25
2018-06-08T05:34:49.252Z,15.21
2018-06-08T05:35:49.170Z,15.14
2018-06-08T05:36:49.213Z,15.17
2018-06-08T05:37:49.194Z,15.18
2018-06-08T05:38:49.145Z,15.16
2018-06-08T05:39:49.267Z,15.16
2018-06-08T05:40:49.164Z,15.19
2018-06-08T05:41:49.202Z,15.17
2018-06-08T05:42:49.189Z,15.25
2018-06-08T05:43:49.232Z,15.2
2018-06-08T05:44:49.137Z,15.27
2018-06-08T05:45:49.155Z,15.22
2018-06-08T05:46:49.144Z,15.35
2018-06-08T05:47:49.175Z,15.43
2018-06-08T05:48:49.227Z,15.47
2018-06-08T05:49:49.162Z,15.42
2018-06-08T05:50:49.155Z,15.32
2018-06-08T05:51:49.142Z,15.47
2018-06-08T05:52:49.168Z,15.42
2018-06-08T05:53:49.174Z,15.39
2018-06-08T05:54:49.215Z,15.43
2018-06-08T05:55:49.167Z,15.51
2018-06-08T05:56:49.164Z,15.46
2018-06-08T05:57:49.165Z,15.33
2018-06-08T05:58:49.205Z,15.4
2018-06-08T05:59:49.207Z,15.33
2018-06-08T06:00:49.148Z,15.4
2018-06-08T06:01:49.161Z,15.34
2018-06-08T06:02:49.161Z,15.4
2018-06-08T06:03:49.168Z,15.37
2018-06-08T06:04:49.136Z,15.48
2018-06-08T06:05:49.154Z,15.46
2018-06-08T06:06:49.167Z,15.46
2018-06-08T06:07:49.141Z,15.56
2018-06-08T06:08:49.411Z,15.6
2018-06-08T06:09:49.198Z,15.41
2018-06-08T06:10:49.354Z,15.41
2018-06-08T06:11:49.199Z,15.43
2018-06-08T06:12:49.308Z,15.45
2018-06-08T06:13:49.202Z,15.52
2018-06-08T06:14:49.259Z,15.46
2018-06-08T06:15:49.144Z,15.46
2018-06-08T06:16:49.202Z,15.27
2018-06-08T06:17:49.161Z,15.3
2018-06-08T06:18:49.128Z,15.31
2018-06-08T06:19:49.165Z,15.34
2018-06-08T06:20:49.541Z,15.32
2018-06-08T06:21:49.166Z,15.46
2018-06-08T06:22:49.181Z,15.45
2018-06-08T06:23:49.148Z,15.39
2018-06-08T06:24:49.226Z,15.48
2018-06-08T06:25:49.147Z,15.5
2018-06-08T06:26:49.166Z,15.35
2018-06-08T06:27:49.138Z,15.28
2018-06-08T06:28:49.124Z,15.25
2018-06-08T06:29:49.130Z,15.32
2018-06-08T06:30:49.225Z,15.3
2018-06-08T06:31:49.132Z,15.32
2018-06-08T06:32:49.124Z,15.43
2018-06-08T06:33:49.127Z,15.46
2018-06-08T06:34:49.134Z,15.51
2018-06-08T06:35:49.130Z,15.46
2018-06-08T06:36:49.157Z,15.55
2018-06-08T06:37:49.135Z,15.5
2018-06-08T06:38:49.109Z,15.5
2018-06-08T06:39:49.146Z,15.52
2018-06-08T06:40:49.119Z,15.6
2018-06-08T06:41:49.124Z,15.72
2018-06-08T06:42:49.116Z,15.47
2018-06-08T06:43:49.141Z,15.48
2018-06-08T06:44:49.423Z,15.5
2018-06-08T06:45:49.108Z,15.44
2018-06-08T06:46:49.151Z,15.18
2018-06-08T06:47:49.299Z,15.34
2018-06-08T06:48:49.114Z,15.45
2018-06-08T06:49:49.092Z,15.35
2018-06-08T06:50:49.103Z,15.41
2018-06-08T06:51:49.164Z,15.45
2018-06-08T06:52:50.494Z,15.48
2018-06-08T06:53:49.137Z,15.67
2018-06-08T06:54:49.123Z,15.61
2018-06-08T06:55:49.122Z,15.61
2018-06-08T06:56:49.175Z,15.54
2018-06-08T06:57:49.128Z,15.59
2018-06-08T06:58:49.351Z,15.58
2018-06-08T06:59:49.154Z,15.68
2018-06-08T07:00:49.106Z,15.66
2018-06-08T07:01:49.121Z,15.57
2018-06-08T07:02:49.120Z,15.71
2018-06-08T07:03:49.096Z,15.64
2018-06-08T07:04:49.149Z,15.69
2018-06-08T07:05:49.176Z,15.63
2018-06-08T07:06:49.142Z,15.69
2018-06-08T07:07:49.161Z,15.49
2018-06-08T07:08:49.113Z,15.27
2018-06-08T07:09:49.111Z,15.2
2018-06-08T07:10:49.116Z,15.42
2018-06-08T07:11:49.203Z,15.45
2018-06-08T07:12:49.442Z,15.45
2018-06-08T07:13:49.139Z,15.61
2018-06-08T07:14:49.157Z,15.52
2018-06-08T07:15:49.128Z,15.57
2018-06-08T07:16:49.333Z,15.59
2018-06-08T07:17:49.405Z,15.54
2018-06-08T07:18:49.940Z,15.62
2018-06-08T07:19:49.130Z,15.62
2018-06-08T07:20:49.123Z,15.44
2018-06-08T07:21:49.345Z,15.63
2018-06-08T07:22:49.113Z,15.52
2018-06-08T07:23:49.103Z,15.45
2018-06-08T07:24:49.386Z,15.49
2018-06-08T07:25:49.118Z,15.53
2018-06-08T07:26:49.126Z,15.22
2018-06-08T07:27:49.199Z,15.23
2018-06-08T07:28:49.161Z,15.3
2018-06-08T07:29:49.125Z,15.5
2018-06-08T07:30:49.166Z,15.54
2018-06-08T07:31:50.624Z,15.67
2018-06-08T07:32:49.145Z,15.79
2018-06-08T07:33:49.117Z,15.43
2018-06-08T07:34:49.122Z,15.42
2018-06-08T07:35:49.159Z,15.69
2018-06-08T07:36:49.134Z,15.47
2018-06-08T07:37:49.109Z,15.38
2018-06-08T07:38:49.132Z,15.47
2018-06-08T07:39:49.273Z,15.45
2018-06-08T07:40:49.123Z,15.44
2018-06-08T07:41:49.124Z,15.49
2018-06-08T07:42:49.108Z,15.53
2018-06-08T07:43:49.145Z,15.73
2018-06-08T07:44:49.123Z,15.75
2018-06-08T07:45:49.137Z,15.71
2018-06-08T07:46:49.677Z,15.79
2018-06-08T07:47:49.101Z,15.72
2018-06-08T07:48:49.133Z,15.66
2018-06-08T07:49:49.116Z,15.7
2018-06-08T07:50:49.106Z,15.55
2018-06-08T07:51:49.148Z,15.63
2018-06-08T07:52:49.112Z,15.65
2018-06-08T07:53:49.518Z,15.73
2018-06-08T07:54:49.121Z,15.69
2018-06-08T07:55:49.279Z,15.44
2018-06-08T07:56:49.119Z,15.44
2018-06-08T07:57:49.124Z,15.46
2018-06-08T07:58:49.096Z,15.48
2018-06-08T07:59:49.126Z,15.59
2018-06-08T08:00:49.144Z,15.65
2018-06-08T08:01:49.139Z,15.69
2018-06-08T08:02:49.110Z,15.67
2018-06-08T08:03:49.178Z,15.68
2018-06-08T08:04:49.101Z,15.52
2018-06-08T08:05:49.110Z,15.61
2018-06-08T08:06:49.136Z,15.57
2018-06-08T08:07:49.100Z,15.59
2018-06-08T08:08:49.125Z,15.69
2018-06-08T08:09:49.118Z,15.79
2018-06-08T08:10:49.073Z,15.79
2018-06-08T08:11:49.133Z,15.95
2018-06-08T08:12:49.127Z,15.89
2018-06-08T08:13:49.103Z,15.76
2018-06-08T08:14:49.119Z,15.89
2018-06-08T08:15:49.092Z,15.85
2018-06-08T08:16:49.486Z,15.77
2018-06-08T08:17:49.119Z,15.9
2018-06-08T08:18:49.211Z,15.67
2018-06-08T08:19:49.256Z,16.04
2018-06-08T08:20:49.102Z,15.64
2018-06-08T08:21:49.083Z,15.75
2018-06-08T08:22:49.100Z,15.88
2018-06-08T08:23:49.128Z,15.82
2018-06-08T08:24:49.092Z,15.5
2018-06-08T08:25:49.773Z,15.64
2018-06-08T08:26:49.187Z,15.63
2018-06-08T08:27:49.128Z,15.7
2018-06-08T08:28:49.143Z,15.81
2018-06-08T08:29:49.069Z,15.79
2018-06-08T08:30:49.163Z,15.8
2018-06-08T08:31:49.075Z,15.82
2018-06-08T08:32:49.161Z,15.84
2018-06-08T08:33:49.091Z,15.65
2018-06-08T08:34:49.107Z,15.6
2018-06-08T08:35:49.200Z,15.68
2018-06-08T08:36:49.089Z,15.77
2018-06-08T08:37:49.097Z,15.64
2018-06-08T08:38:49.192Z,15.42
2018-06-08T08:39:49.181Z,15.52
2018-06-08T08:40:49.261Z,15.51
2018-06-08T08:41:49.229Z,15.47
2018-06-08T08:42:49.287Z,15.52
2018-06-08T08:43:49.078Z,15.45
2018-06-08T08:44:49.070Z,15.4
2018-06-08T08:45:49.090Z,15.45
2018-06-08T08:46:49.089Z,15.75
2018-06-08T08:47:49.073Z,15.9
2018-06-08T08:48:49.129Z,15.85
2018-06-08T08:49:49.071Z,15.86
2018-06-08T08:50:49.127Z,15.83
2018-06-08T08:51:49.084Z,15.53
2018-06-08T08:52:49.069Z,15.6
2018-06-08T08:53:49.106Z,15.72
2018-06-08T08:54:49.081Z,15.76
2018-06-08T08:55:49.072Z,15.72
2018-06-08T08:56:49.509Z,15.75
2018-06-08T08:57:49.116Z,15.76
2018-06-08T08:58:49.062Z,15.73
2018-06-08T08:59:49.108Z,15.68
2018-06-08T09:00:49.058Z,15.77
2018-06-08T09:01:49.107Z,15.91
2018-06-08T09:02:49.118Z,16.04
2018-06-08T09:03:49.394Z,15.89
2018-06-08T09:04:49.070Z,15.87
2018-06-08T09:05:49.112Z,15.89
2018-06-08T09:06:49.103Z,15.88
2018-06-08T09:07:49.065Z,16.05
2018-06-08T09:08:49.067Z,16.07
2018-06-08T09:09:49.117Z,15.82
2018-06-08T09:10:49.085Z,15.78
2018-06-08T09:11:49.086Z,15.77
2018-06-08T09:12:49.090Z,15.89
2018-06-08T09:13:49.063Z,15.91
2018-06-08T09:14:49.120Z,16
2018-06-08T09:15:49.170Z,15.96
2018-06-08T09:16:49.085Z,15.92
2018-06-08T09:17:49.080Z,15.73
2018-06-08T09:18:49.087Z,15.53
2018-06-08T09:19:49.149Z,15.61
2018-06-08T09:20:49.292Z,15.43
2018-06-08T09:21:49.302Z,15.44
2018-06-08T09:22:49.244Z,15.66
2018-06-08T09:23:49.159Z,15.55
2018-06-08T09:24:49.174Z,15.48
2018-06-08T09:25:49.216Z,15.55
2018-06-08T09:26:49.232Z,15.72
2018-06-08T09:27:49.084Z,15.72
2018-06-08T09:28:49.060Z,15.65
2018-06-08T09:29:49.107Z,15.43
2018-06-08T09:30:49.059Z,15.73
2018-06-08T09:31:49.074Z,15.73
2018-06-08T09:32:49.060Z,15.44
2018-06-08T09:33:49.256Z,15.27
2018-06-08T09:34:49.228Z,15.34
2018-06-08T09:35:49.091Z,15.68
2018-06-08T09:36:49.175Z,15.68
2018-06-08T09:37:49.080Z,15.87
2018-06-08T09:38:49.079Z,15.46
2018-06-08T09:39:49.081Z,15.65
2018-06-08T09:40:49.088Z,15.75
2018-06-08T09:41:49.103Z,15.67
2018-06-08T09:42:49.056Z,15.67
2018-06-08T09:43:49.160Z,15.5
2018-06-08T09:44:49.110Z,15.44
2018-06-08T09:45:49.090Z,15.4
2018-06-08T09:46:49.086Z,15.38
2018-06-08T09:47:49.162Z,15.67
2018-06-08T09:48:49.138Z,15.72
2018-06-08T09:49:49.091Z,15.76
2018-06-08T09:50:49.126Z,15.78
2018-06-08T09:51:49.078Z,15.71
2018-06-08T09:52:49.045Z,15.41
2018-06-08T09:53:49.084Z,15.63
2018-06-08T09:54:49.338Z,15.59
2018-06-08T09:55:49.097Z,15.4
2018-06-08T09:56:49.066Z,15.43
2018-06-08T09:57:49.072Z,15.64
2018-06-08T09:58:49.092Z,15.65
2018-06-08T09:59:49.060Z,15.75
2018-06-08T10:00:49.099Z,15.43
2018-06-08T10:01:49.133Z,15.57
2018-06-08T10:02:49.074Z,15.52
2018-06-08T10:03:49.121Z,15.6
2018-06-08T10:04:49.075Z,15.77
2018-06-08T10:05:49.068Z,15.89
2018-06-08T10:06:49.078Z,15.89
2018-06-08T10:07:49.074Z,15.83
2018-06-08T10:08:49.114Z,15.67
2018-06-08T10:09:49.088Z,15.45
2018-06-08T10:10:49.128Z,15.5
2018-06-08T10:11:49.178Z,15.55
2018-06-08T10:12:49.224Z,15.54
2018-06-08T10:13:49.288Z,15.3
2018-06-08T10:14:49.056Z,15.21
2018-06-08T10:15:49.064Z,15.35
2018-06-08T10:16:49.111Z,15.25
2018-06-08T10:17:49.080Z,15.29
2018-06-08T10:18:49.064Z,15.58
2018-06-08T10:19:49.103Z,15.66
2018-06-08T10:20:49.047Z,15.65
2018-06-08T10:21:49.106Z,15.72
2018-06-08T10:22:49.070Z,15.64
2018-06-08T10:23:49.048Z,15.68
2018-06-08T10:24:49.055Z,15.77
2018-06-08T10:25:49.061Z,15.75
2018-06-08T10:26:49.075Z,15.86
2018-06-08T10:27:49.075Z,15.98
2018-06-08T10:28:49.075Z,15.57
2018-06-08T10:29:49.101Z,15.68
2018-06-08T10:30:49.346Z,15.78
2018-06-08T10:31:49.199Z,15.82
2018-06-08T10:32:49.081Z,15.61
2018-06-08T10:33:49.156Z,15.9
2018-06-08T10:34:49.087Z,15.91
2018-06-08T10:35:49.055Z,15.82
2018-06-08T10:36:49.082Z,15.53
2018-06-08T10:37:49.055Z,15.47
2018-06-08T10:38:49.253Z,15.49
2018-06-08T10:39:49.096Z,15.24
2018-06-08T10:40:49.239Z,15.27
2018-06-08T10:41:49.095Z,15.47
2018-06-08T10:42:49.117Z,15.42
2018-06-08T10:43:49.084Z,15.55
2018-06-08T10:44:49.100Z,15.72
2018-06-08T10:45:49.073Z,15.44
2018-06-08T10:46:49.062Z,15.25
2018-06-08T10:47:49.077Z,15.49
2018-06-08T10:48:49.223Z,15.34
2018-06-08T10:49:49.107Z,15.2
2018-06-08T10:50:49.100Z,15.19
2018-06-08T10:51:49.138Z,15.37
2018-06-08T10:52:49.158Z,15.41
2018-06-08T10:53:49.135Z,15.38
2018-06-08T10:54:49.056Z,15.55
2018-06-08T10:55:49.150Z,15.68
2018-06-08T10:56:49.126Z,15.63
2018-06-08T10:57:49.141Z,15.68
2018-06-08T10:58:49.101Z,15.89
2018-06-08T10:59:58.271Z,15.86
2018-06-08T11:00:49.092Z,15.92
2018-06-08T11:01:49.075Z,15.85
2018-06-08T11:02:49.080Z,15.79
2018-06-08T11:03:49.140Z,15.75
2018-06-08T11:04:49.095Z,15.57
2018-06-08T11:05:49.100Z,15.64
2018-06-08T11:06:49.052Z,15.47
2018-06-08T11:07:49.091Z,15.58
2018-06-08T11:08:49.055Z,15.51
2018-06-08T11:09:49.082Z,15.67
2018-06-08T11:10:49.143Z,15.32
2018-06-08T11:11:49.084Z,15.49
2018-06-08T11:12:49.130Z,15.35
2018-06-08T11:13:49.089Z,15.38
2018-06-08T11:14:49.047Z,15.25
2018-06-08T11:15:49.072Z,15.87
2018-06-08T11:16:49.022Z,15.86
2018-06-08T11:17:49.026Z,15.67
2018-06-08T11:18:49.109Z,15.61
2018-06-08T11:19:49.435Z,15.71
2018-06-08T11:20:49.121Z,15.57
2018-06-08T11:21:49.052Z,15.36
2018-06-08T11:22:49.066Z,15.15
2018-06-08T11:23:49.078Z,15.25
2018-06-08T11:24:49.092Z,15.37
2018-06-08T11:25:49.091Z,15.51
2018-06-08T11:26:49.080Z,15.6
2018-06-08T11:27:49.122Z,15.73
2018-06-08T11:28:49.142Z,15.87
2018-06-08T11:29:49.069Z,15.59
2018-06-08T11:30:49.136Z,15.44
2018-06-08T11:31:49.071Z,15.42
2018-06-08T11:32:49.077Z,15.14
2018-06-08T11:33:49.148Z,15.27
2018-06-08T11:34:49.030Z,15.05
2018-06-08T11:35:49.100Z,15.04
2018-06-08T11:36:49.088Z,14.99
2018-06-08T11:37:49.094Z,14.76
2018-06-08T11:38:49.084Z,14.78
2018-06-08T11:39:49.070Z,14.65
2018-06-08T11:40:49.050Z,14.95
2018-06-08T11:41:49.040Z,15.38
2018-06-08T11:42:49.091Z,15.26
2018-06-08T11:43:49.064Z,15.02
2018-06-08T11:44:49.016Z,14.99
2018-06-08T11:45:49.395Z,14.83
2018-06-08T11:46:49.144Z,15.17
2018-06-08T11:47:49.091Z,15.22
2018-06-08T11:48:49.032Z,15.33
2018-06-08T11:49:49.036Z,15.31
2018-06-08T11:50:49.092Z,15.51
2018-06-08T11:51:49.051Z,15.35
2018-06-08T11:52:49.124Z,15.41
2018-06-08T11:53:49.058Z,15.67
2018-06-08T11:54:49.080Z,15.73
2018-06-08T11:55:49.046Z,15.69
2018-06-08T11:56:49.039Z,15.49
2018-06-08T11:57:49.066Z,15.18
2018-06-08T11:58:49.099Z,15.26
2018-06-08T11:59:49.037Z,15.14
2018-06-08T12:00:49.091Z,14.79
2018-06-08T12:01:49.535Z,15.2
2018-06-08T12:02:49.063Z,15.16
2018-06-08T12:03:49.088Z,15.4
2018-06-08T12:04:49.049Z,15.37
2018-06-08T12:05:49.053Z,15.47
2018-06-08T12:06:49.175Z,15.1
2018-06-08T12:07:49.347Z,15.27
2018-06-08T12:08:49.094Z,15.23
2018-06-08T12:09:49.037Z,15.19
2018-06-08T12:10:49.096Z,14.98
2018-06-08T12:11:49.030Z,15.08
2018-06-08T12:12:49.089Z,15.26
2018-06-08T12:13:49.060Z,14.83
2018-06-08T12:14:49.079Z,15.22
2018-06-08T12:15:49.096Z,15.06
2018-06-08T12:16:49.182Z,14.87
2018-06-08T12:17:49.128Z,15.11
2018-06-08T12:18:49.203Z,14.83
2018-06-08T12:19:49.058Z,14.88
2018-06-08T12:20:49.160Z,15.02
2018-06-08T12:21:49.243Z,14.76
2018-06-08T12:22:49.149Z,14.87
2018-06-08T12:23:49.048Z,15.04
2018-06-08T12:24:49.015Z,15.09
2018-06-08T12:25:49.053Z,15.47
2018-06-08T12:26:49.051Z,14.87
2018-06-08T12:27:49.024Z,14.91
2018-06-08T12:28:49.039Z,14.51
2018-06-08T12:29:49.098Z,14.64
2018-06-08T12:30:49.721Z,14.67
2018-06-08T12:31:49.101Z,14.69
2018-06-08T12:32:49.023Z,14.59
2018-06-08T12:33:49.257Z,14.56
2018-06-08T12:34:49.027Z,15.06
2018-06-08T12:35:49.061Z,14.81
2018-06-08T12:36:49.034Z,14.4
2018-06-08T12:37:49.074Z,14.4
2018-06-08T12:38:49.044Z,15.03
2018-06-08T12:39:49.034Z,14.87
2018-06-08T12:40:49.142Z,14.74
2018-06-08T12:41:49.057Z,14.87
2018-06-08T12:42:49.080Z,14.9
2018-06-08T12:43:49.100Z,14.89
2018-06-08T12:44:49.021Z,14.45
2018-06-08T12:45:49.034Z,14.57
2018-06-08T12:46:49.037Z,15.17
2018-06-08T12:47:49.034Z,14.95
2018-06-08T12:48:49.007Z,14.79
2018-06-08T12:49:49.106Z,14.43
2018-06-08T12:50:49.082Z,14.33
2018-06-08T12:51:49.055Z,14.55
2018-06-08T12:52:49.071Z,14.42
2018-06-08T12:53:49.055Z,14.27
2018-06-08T12:54:49.100Z,14.12
2018-06-08T12:55:49.162Z,14.37